createdAt,value
2022-12-13T00:00:31.646Z,98670.78
2022-12-13T00:02:58.566Z,98673.41
2022-12-13T00:05:25.517Z,98674.16
2022-12-13T00:07:52.554Z,98686.91
2022-12-13T00:10:19.543Z,98693.84
2022-12-13T00:12:46.663Z,98659.53
2022-12-13T00:15:13.933Z,98681.00
2022-12-13T00:17:41.738Z,98686.91
2022-12-13T00:20:09.041Z,98680.81
2022-12-13T00:22:35.921Z,98686.75
2022-12-13T00:25:03.052Z,98689.31
2022-12-13T00:27:29.939Z,98657.66
2022-12-13T00:29:56.978Z,98688.38
2022-12-13T00:32:24.002Z,98670.25
2022-12-13T00:34:50.967Z,98661.91
2022-12-13T00:37:17.867Z,98648.19
2022-12-13T00:39:44.850Z,98683.03
2022-12-13T00:42:11.751Z,98678.72
2022-12-13T00:44:38.714Z,98664.94
2022-12-13T00:47:05.728Z,98689.59
2022-12-13T00:49:32.704Z,98689.50
2022-12-13T00:52:00.310Z,98685.22
2022-12-13T00:54:28.441Z,98670.63
2022-12-13T00:56:55.448Z,98709.13
2022-12-13T00:59:23.163Z,98694.53
2022-12-13T01:01:50.137Z,98707.38
2022-12-13T01:04:17.295Z,98700.56
2022-12-13T01:06:45.496Z,98699.78
2022-12-13T01:09:20.371Z,98698.00
2022-12-13T01:11:47.453Z,98695.38
2022-12-13T01:14:14.585Z,98704.78
2022-12-13T01:16:41.662Z,98691.09
2022-12-13T01:19:08.596Z,98679.91
2022-12-13T01:21:35.700Z,98668.72
2022-12-13T01:24:03.729Z,98676.34
2022-12-13T01:26:30.740Z,98702.88
2022-12-13T01:28:57.726Z,98703.72
2022-12-13T01:31:24.862Z,98663.34
2022-12-13T01:33:51.773Z,98666.78
2022-12-13T01:36:27.771Z,98682.91
2022-12-13T01:38:58.616Z,98676.94
2022-12-13T01:41:27.268Z,98670.91
2022-12-13T01:44:16.057Z,98701.47
2022-12-13T01:46:43.022Z,98692.81
2022-12-13T01:49:19.406Z,98686.91
2022-12-13T01:51:50.369Z,98703.97
2022-12-13T01:54:21.280Z,98708.19
2022-12-13T01:57:00.815Z,98727.81
2022-12-13T01:59:28.082Z,98709.72
2022-12-13T02:01:54.995Z,98686.59
2022-12-13T02:04:44.293Z,98695.06
2022-12-13T02:07:23.276Z,98725.78
2022-12-13T02:09:56.393Z,98731.69
2022-12-13T02:12:25.519Z,98706.88
2022-12-13T02:14:57.958Z,98705.19
2022-12-13T02:17:29.822Z,98732.53
2022-12-13T02:20:21.544Z,98742.72
2022-12-13T02:23:08.240Z,98717.91
2022-12-13T02:26:06.017Z,98738.53
2022-12-13T02:28:42.042Z,98733.47
2022-12-13T02:31:14.609Z,98709.47
2022-12-13T02:33:58.709Z,98737.72
2022-12-13T02:36:36.609Z,98739.88
2022-12-13T02:39:30.703Z,98737.56
2022-12-13T02:42:06.116Z,98716.25
2022-12-13T02:44:40.101Z,98707.84
2022-12-13T02:47:12.754Z,98724.09
2022-12-13T02:49:51.968Z,98707.00
2022-12-13T02:52:22.487Z,98698.59
2022-12-13T02:54:49.843Z,98690.03
2022-12-13T02:57:31.358Z,98718.34
2022-12-13T02:59:59.811Z,98697.84
2022-12-13T03:02:38.969Z,98738.03
2022-12-13T03:05:28.601Z,98724.41
2022-12-13T03:08:03.092Z,98730.31
2022-12-13T03:10:34.021Z,98742.31
2022-12-13T03:13:21.383Z,98707.31
2022-12-13T03:15:55.934Z,98745.75
2022-12-13T03:18:23.064Z,98740.69
2022-12-13T03:20:57.287Z,98751.72
2022-12-13T03:23:24.389Z,98721.78
2022-12-13T03:25:53.035Z,98726.03
2022-12-13T03:28:20.062Z,98726.03
2022-12-13T03:30:47.016Z,98715.00
2022-12-13T03:33:14.051Z,98736.41
2022-12-13T03:35:45.126Z,98725.28
2022-12-13T03:38:22.438Z,98729.50
2022-12-13T03:40:52.262Z,98721.81
2022-12-13T03:43:22.110Z,98735.63
2022-12-13T03:45:51.204Z,98754.41
2022-12-13T03:48:23.057Z,98739.00
2022-12-13T03:50:51.456Z,98722.69
2022-12-13T03:53:23.188Z,98725.31
2022-12-13T03:56:00.982Z,98753.44
2022-12-13T03:58:36.111Z,98739.78
2022-12-13T04:01:08.759Z,98751.75
2022-12-13T04:03:36.265Z,98721.81
2022-12-13T04:06:03.810Z,98751.91
2022-12-13T04:08:30.883Z,98733.81
2022-12-13T04:10:57.808Z,98720.06
2022-12-13T04:13:33.459Z,98729.47
2022-12-13T04:16:01.581Z,98747.50
2022-12-13T04:18:28.558Z,98755.16
2022-12-13T04:20:55.513Z,98737.25
2022-12-13T04:23:22.396Z,98743.09
2022-12-13T04:25:49.308Z,98742.25
2022-12-13T04:28:22.180Z,98745.59
2022-12-13T04:30:53.725Z,98764.13
2022-12-13T04:33:24.523Z,98752.19
2022-12-13T04:35:51.675Z,98739.44
2022-12-13T04:38:18.740Z,98728.41
2022-12-13T04:40:45.958Z,98732.00
2022-12-13T04:43:12.819Z,98734.53
2022-12-13T04:45:39.863Z,98763.66
2022-12-13T04:48:06.842Z,98743.06
2022-12-13T04:50:34.117Z,98750.84
2022-12-13T04:53:01.070Z,98760.13
2022-12-13T04:55:28.016Z,98739.63
2022-12-13T04:57:54.914Z,98757.59
2022-12-13T05:00:23.391Z,98743.06
2022-12-13T05:02:50.758Z,98736.06
2022-12-13T05:05:18.252Z,98772.06
2022-12-13T05:07:45.505Z,98740.41
2022-12-13T05:10:13.952Z,98743.00
2022-12-13T05:13:00.043Z,98746.34
2022-12-13T05:15:27.853Z,98744.59
2022-12-13T05:17:54.796Z,98745.50
2022-12-13T05:20:21.653Z,98763.41
2022-12-13T05:22:48.632Z,98742.00
2022-12-13T05:25:15.677Z,98752.34
2022-12-13T05:27:42.748Z,98747.06
2022-12-13T05:30:10.331Z,98746.22
2022-12-13T05:32:44.119Z,98736.88
2022-12-13T05:35:12.850Z,98753.03
2022-12-13T05:37:39.859Z,98754.69
2022-12-13T05:40:07.638Z,98758.03
2022-12-13T05:42:34.585Z,98768.41
2022-12-13T05:45:01.490Z,98749.47
2022-12-13T05:47:29.184Z,98774.31
2022-12-13T05:49:56.110Z,98782.81
2022-12-13T05:52:30.443Z,98787.03
2022-12-13T05:55:01.045Z,98759.63
2022-12-13T05:57:28.537Z,98778.44
2022-12-13T05:59:55.787Z,98757.91
2022-12-13T06:02:22.976Z,98764.75
2022-12-13T06:04:50.035Z,98787.75
2022-12-13T06:07:17.007Z,98791.19
2022-12-13T06:09:44.103Z,98791.16
2022-12-13T06:12:30.738Z,98758.69
2022-12-13T06:15:01.340Z,98787.59
2022-12-13T06:17:32.787Z,98797.88
2022-12-13T06:20:00.117Z,98772.97
2022-12-13T06:22:30.340Z,98800.28
2022-12-13T06:24:57.422Z,98800.28
2022-12-13T06:27:24.373Z,98767.72
2022-12-13T06:29:51.303Z,98796.91
2022-12-13T06:32:20.446Z,98800.25
2022-12-13T06:34:47.395Z,98802.84
2022-12-13T06:37:19.062Z,98798.50
2022-12-13T06:39:46.072Z,98778.69
2022-12-13T06:42:22.261Z,98767.72
2022-12-13T06:44:55.952Z,98811.25
2022-12-13T06:47:30.948Z,98815.03
2022-12-13T06:50:05.452Z,98781.81
2022-12-13T06:52:33.127Z,98776.84
2022-12-13T06:55:00.175Z,98799.09
2022-12-13T06:57:27.201Z,98790.72
2022-12-13T06:59:54.103Z,98780.31
2022-12-13T07:02:25.154Z,98807.75
2022-12-13T07:04:53.465Z,98808.56
2022-12-13T07:07:20.411Z,98790.63
2022-12-13T07:09:47.406Z,98810.28
2022-12-13T07:12:14.285Z,98805.97
2022-12-13T07:14:41.540Z,98809.28
2022-12-13T07:17:08.510Z,98791.38
2022-12-13T07:19:36.073Z,98790.47
2022-12-13T07:22:06.152Z,98828.13
2022-12-13T07:24:34.632Z,98787.16
2022-12-13T07:27:02.241Z,98782.00
2022-12-13T07:29:31.090Z,98829.88
2022-12-13T07:32:01.575Z,98809.19
2022-12-13T07:34:30.033Z,98840.03
2022-12-13T07:36:56.932Z,98834.03
2022-12-13T07:39:26.365Z,98808.38
2022-12-13T07:41:55.429Z,98807.47
2022-12-13T07:44:22.564Z,98804.88
2022-12-13T07:46:49.541Z,98813.47
2022-12-13T07:49:16.704Z,98831.50
2022-12-13T07:51:43.588Z,98816.91
2022-12-13T07:54:10.612Z,98846.84
2022-12-13T07:56:37.510Z,98831.38
2022-12-13T07:59:04.474Z,98827.03
2022-12-13T08:01:34.919Z,98819.41
2022-12-13T08:04:02.865Z,98826.41
2022-12-13T08:06:30.915Z,98818.66
2022-12-13T08:08:58.175Z,98810.03
2022-12-13T08:11:25.191Z,98812.69
2022-12-13T08:13:53.867Z,98847.88
2022-12-13T08:16:25.963Z,98847.00
2022-12-13T08:19:02.078Z,98835.00
2022-12-13T08:21:55.699Z,98837.59
2022-12-13T08:24:24.952Z,98820.34
2022-12-13T08:26:54.690Z,98833.25
2022-12-13T08:29:23.526Z,98824.72
2022-12-13T08:32:07.044Z,98846.13
2022-12-13T08:34:34.057Z,98851.28
2022-12-13T08:37:03.162Z,98861.59
2022-12-13T08:39:34.640Z,98840.06
2022-12-13T08:42:21.032Z,98829.78
2022-12-13T08:44:52.422Z,98877.59
2022-12-13T08:47:23.015Z,98871.78
2022-12-13T08:50:01.912Z,98858.06
2022-12-13T08:52:39.206Z,98848.66
2022-12-13T08:55:12.530Z,98874.41
2022-12-13T08:57:39.907Z,98860.72
2022-12-13T09:00:07.702Z,98873.66
2022-12-13T09:02:37.863Z,98848.03
2022-12-13T09:05:06.024Z,98844.59
2022-12-13T09:07:33.029Z,98861.78
2022-12-13T09:10:00.035Z,98838.69
2022-12-13T09:12:47.047Z,98849.69
2022-12-13T09:15:22.532Z,98847.25
2022-12-13T09:17:52.208Z,98871.31
2022-12-13T09:20:29.195Z,98868.78
2022-12-13T09:23:01.950Z,98843.09
2022-12-13T09:25:36.712Z,98848.31
2022-12-13T09:28:08.415Z,98867.25
2022-12-13T09:30:36.976Z,98846.81
2022-12-13T09:33:28.662Z,98836.66
2022-12-13T09:35:54.096Z,98841.88
2022-12-13T09:38:21.054Z,98832.41
2022-12-13T09:40:48.406Z,98844.47
2022-12-13T09:43:31.298Z,98826.59
2022-12-13T09:46:01.806Z,98861.84
2022-12-13T09:48:34.538Z,98845.75
2022-12-13T09:51:18.330Z,98844.09
2022-12-13T09:53:50.934Z,98852.75
2022-12-13T09:56:19.252Z,98824.59
2022-12-13T09:58:49.491Z,98822.97
2022-12-13T10:01:22.542Z,98832.72
2022-12-13T10:03:53.378Z,98852.56
2022-12-13T10:06:22.796Z,98828.81
2022-12-13T10:08:50.951Z,98851.19
2022-12-13T10:11:31.902Z,98831.72
2022-12-13T10:14:05.862Z,98843.16
2022-12-13T10:16:37.056Z,98846.69
2022-12-13T10:19:29.505Z,98810.25
2022-12-13T10:22:02.104Z,98803.56
2022-12-13T10:24:36.876Z,98804.66
2022-12-13T10:27:15.398Z,98816.06
2022-12-13T10:30:17.564Z,98829.00
2022-12-13T10:32:56.962Z,98802.63
2022-12-13T10:35:28.027Z,98810.63
2022-12-13T10:37:56.031Z,98797.13
2022-12-13T10:40:33.740Z,98788.72
2022-12-13T10:43:07.737Z,98825.66
2022-12-13T10:45:34.942Z,98825.25
2022-12-13T10:48:04.306Z,98820.63
2022-12-13T10:50:31.619Z,98776.44
2022-12-13T10:53:00.266Z,98789.44
2022-12-13T10:55:33.926Z,98811.84
2022-12-13T10:58:04.036Z,98811.38
2022-12-13T11:00:38.755Z,98811.84
2022-12-13T11:03:05.970Z,98777.03
2022-12-13T11:05:34.511Z,98776.47
2022-12-13T11:08:27.048Z,98766.25
2022-12-13T11:11:04.056Z,98769.88
2022-12-13T11:13:38.690Z,98788.75
2022-12-13T11:16:22.261Z,98772.63
2022-12-13T11:18:54.141Z,98761.59
2022-12-13T11:21:32.597Z,98774.50
2022-12-13T11:24:02.244Z,98775.53
2022-12-13T11:26:29.843Z,98746.53
2022-12-13T11:29:19.307Z,98773.91
2022-12-13T11:32:00.852Z,98763.66
2022-12-13T11:34:53.687Z,98754.41
2022-12-13T11:37:28.905Z,98775.88
2022-12-13T11:40:15.752Z,98773.41
2022-12-13T11:42:50.230Z,98753.03
2022-12-13T11:45:23.502Z,98755.66
2022-12-13T11:48:04.960Z,98765.16
2022-12-13T11:50:41.134Z,98760.94
2022-12-13T11:53:30.716Z,98760.19
2022-12-13T11:56:20.388Z,98758.53
2022-12-13T11:59:26.074Z,98743.25
2022-12-13T12:02:16.891Z,98750.09
2022-12-13T12:04:49.091Z,98756.09
2022-12-13T12:07:32.513Z,98753.69
2022-12-13T12:10:15.387Z,98757.13
2022-12-13T12:12:44.513Z,98710.28
2022-12-13T12:15:26.371Z,98742.00
2022-12-13T12:17:57.769Z,98745.38
2022-12-13T12:21:00.554Z,98724.97
2022-12-13T12:23:55.875Z,98736.03
2022-12-13T12:26:30.897Z,98698.56
2022-12-13T12:29:36.008Z,98736.19
2022-12-13T12:32:16.587Z,98731.94
2022-12-13T12:35:05.079Z,98737.97
2022-12-13T12:37:44.966Z,98748.19
2022-12-13T12:40:17.971Z,98734.69
2022-12-13T12:43:15.264Z,98746.59
2022-12-13T12:45:56.337Z,98744.06
2022-12-13T12:49:01.882Z,98744.13
2022-12-13T12:51:29.503Z,98749.25
2022-12-13T12:54:03.588Z,98746.78
2022-12-13T12:56:43.035Z,98710.94
2022-12-13T12:59:21.686Z,98747.59
2022-12-13T13:02:10.076Z,98734.00
2022-12-13T13:04:42.461Z,98724.66
2022-12-13T13:07:39.670Z,98746.84
2022-12-13T13:10:16.381Z,98728.06
2022-12-13T13:12:53.585Z,98711.84
2022-12-13T13:15:38.972Z,98751.13
2022-12-13T13:18:28.128Z,98756.25
2022-12-13T13:21:23.331Z,98753.59
2022-12-13T13:24:06.963Z,98752.72
2022-12-13T13:26:36.736Z,98746.78
2022-12-13T13:29:29.046Z,98730.56
2022-12-13T13:32:01.128Z,98751.88
2022-12-13T13:34:31.040Z,98722.00
2022-12-13T13:36:58.871Z,98728.78
2022-12-13T13:39:28.846Z,98761.19
2022-12-13T13:42:02.380Z,98749.16
2022-12-13T13:45:00.488Z,98763.56
2022-12-13T13:47:27.386Z,98772.03
2022-12-13T13:50:12.267Z,98754.97
2022-12-13T13:52:42.076Z,98769.38
2022-12-13T13:55:37.356Z,98745.44
2022-12-13T13:58:41.841Z,98772.63
2022-12-13T14:01:26.399Z,98765.75
2022-12-13T14:04:38.065Z,98768.25
2022-12-13T14:07:26.976Z,98760.44
2022-12-13T14:09:57.084Z,98776.56
2022-12-13T14:12:23.923Z,98762.84
2022-12-13T14:15:21.339Z,98769.63
2022-12-13T14:17:54.351Z,98776.31
2022-12-13T14:20:43.158Z,98774.47
2022-12-13T14:23:26.000Z,98749.59
2022-12-13T14:26:14.711Z,98780.28
2022-12-13T14:28:56.389Z,98757.09
2022-12-13T14:31:43.041Z,98742.50
2022-12-13T14:34:27.258Z,98742.31
2022-12-13T14:36:58.258Z,98751.59
2022-12-13T14:39:26.222Z,98747.28
2022-12-13T14:41:58.521Z,98753.16
2022-12-13T14:44:30.353Z,98774.44
2022-12-13T14:47:05.643Z,98764.84
2022-12-13T14:49:38.459Z,98756.19
2022-12-13T14:52:26.568Z,98774.03
2022-12-13T14:54:59.695Z,98763.50
2022-12-13T14:57:31.031Z,98786.50
2022-12-13T14:59:59.224Z,98777.91
2022-12-13T15:02:32.888Z,98752.16
2022-12-13T15:05:00.450Z,98792.56
2022-12-13T15:07:30.619Z,98787.63
2022-12-13T15:10:02.246Z,98775.63
2022-12-13T15:12:30.113Z,98761.84
2022-12-13T15:15:02.061Z,98784.81
2022-12-13T15:17:34.058Z,98778.69
2022-12-13T15:20:20.481Z,98798.09
2022-12-13T15:22:47.935Z,98775.81
2022-12-13T15:25:15.637Z,98789.47
2022-12-13T15:27:48.396Z,98770.50
2022-12-13T15:30:15.741Z,98783.19
2022-12-13T15:33:04.706Z,98788.97
2022-12-13T15:35:31.844Z,98792.28
2022-12-13T15:38:00.854Z,98782.75
2022-12-13T15:40:27.830Z,98806.66
2022-12-13T15:42:54.777Z,98797.22
2022-12-13T15:45:24.619Z,98801.50
2022-12-13T15:47:54.928Z,98769.81
2022-12-13T15:50:38.494Z,98792.72
2022-12-13T15:53:26.625Z,98756.81
2022-12-13T15:55:53.960Z,98765.28
2022-12-13T15:58:30.464Z,98784.81
2022-12-13T16:00:58.506Z,98779.59
2022-12-13T16:03:26.017Z,98761.41
2022-12-13T16:05:55.049Z,98780.13
2022-12-13T16:08:32.427Z,98781.91
2022-12-13T16:10:59.469Z,98805.66
2022-12-13T16:13:31.817Z,98771.41
2022-12-13T16:16:09.293Z,98767.03
2022-12-13T16:18:55.115Z,98771.19
2022-12-13T16:21:22.081Z,98799.34
2022-12-13T16:23:49.261Z,98812.00
2022-12-13T16:26:23.668Z,98777.63
2022-12-13T16:28:50.731Z,98808.31
2022-12-13T16:31:18.997Z,98815.97
2022-12-13T16:33:46.066Z,98814.97
2022-12-13T16:36:13.086Z,98795.31
2022-12-13T16:38:40.107Z,98790.97
2022-12-13T16:41:08.377Z,98778.81
2022-12-13T16:43:39.017Z,98806.00
2022-12-13T16:47:16.775Z,98787.03
2022-12-13T16:48:53.769Z,98791.13
2022-12-13T16:51:21.109Z,98803.69
2022-12-13T16:53:48.114Z,98813.88
2022-12-13T16:56:16.666Z,98812.97
2022-12-13T16:58:49.726Z,98836.06
2022-12-13T17:01:19.841Z,98801.63
2022-12-13T17:03:46.898Z,98804.97
2022-12-13T17:06:13.847Z,98827.25
2022-12-13T17:08:41.356Z,98816.88
2022-12-13T17:11:14.581Z,98812.47
2022-12-13T17:13:47.085Z,98812.28
2022-12-13T17:16:14.298Z,98831.81
2022-12-13T17:18:41.369Z,98812.00
2022-12-13T17:21:09.272Z,98815.28
2022-12-13T17:23:36.285Z,98826.34
2022-12-13T17:26:10.482Z,98840.91
2022-12-13T17:28:37.719Z,98833.94
2022-12-13T17:31:09.221Z,98820.97
2022-12-13T17:33:36.575Z,98814.72
2022-12-13T17:36:04.493Z,98844.44
2022-12-13T17:38:31.510Z,98832.41
2022-12-13T17:40:58.504Z,98860.50
2022-12-13T17:43:34.380Z,98830.50
2022-12-13T17:46:03.461Z,98857.81
2022-12-13T17:48:37.271Z,98848.31
2022-12-13T17:51:07.637Z,98838.72
2022-12-13T17:53:34.559Z,98817.19
2022-12-13T17:56:03.929Z,98841.25
2022-12-13T17:58:32.375Z,98823.13
2022-12-13T18:00:59.907Z,98860.59
2022-12-13T18:03:27.176Z,98829.56
2022-12-13T18:05:59.350Z,98819.16
2022-12-13T18:08:26.866Z,98835.34
2022-12-13T18:11:23.852Z,98827.56
2022-12-13T18:13:45.231Z,98848.91
2022-12-13T18:16:13.975Z,98808.59
2022-12-13T18:18:41.043Z,98823.16
2022-12-13T18:21:18.151Z,98858.06
2022-12-13T18:23:45.447Z,98855.28
2022-12-13T18:26:22.480Z,98815.91
2022-12-13T18:28:49.406Z,98810.72
2022-12-13T18:31:18.836Z,98794.41
2022-12-13T18:33:47.892Z,98815.91
2022-12-13T18:36:16.474Z,98847.28
2022-12-13T18:38:43.438Z,98817.50
2022-12-13T18:41:14.070Z,98802.72
2022-12-13T18:43:44.231Z,98800.88
2022-12-13T18:46:11.805Z,98838.38
2022-12-13T18:48:38.827Z,98828.78
2022-12-13T18:51:07.816Z,98838.03
2022-12-13T18:53:34.984Z,98824.22
2022-12-13T18:56:02.919Z,98836.22
2022-12-13T18:58:29.844Z,98853.19
2022-12-13T19:00:57.538Z,98823.91
2022-12-13T19:03:25.733Z,98852.22
2022-12-13T19:05:53.222Z,98819.56
2022-12-13T19:08:20.111Z,98857.81
2022-12-13T19:10:48.067Z,98818.31
2022-12-13T19:13:14.994Z,98869.66
2022-12-13T19:15:42.049Z,98868.63
2022-12-13T19:18:09.146Z,98862.56
2022-12-13T19:20:36.210Z,98840.91
2022-12-13T19:23:03.130Z,98886.09
2022-12-13T19:25:30.803Z,98875.03
2022-12-13T19:27:57.733Z,98847.28
2022-12-13T19:30:24.708Z,98876.38
2022-12-13T19:32:51.880Z,98878.78
2022-12-13T19:35:19.804Z,98885.59
2022-12-13T19:37:46.749Z,98852.13
2022-12-13T19:40:13.737Z,98848.53
2022-12-13T19:42:40.627Z,98854.34
2022-12-13T19:45:09.352Z,98886.16
2022-12-13T19:47:36.300Z,98881.69
2022-12-13T19:50:03.444Z,98862.72
2022-12-13T19:52:30.345Z,98867.81
2022-12-13T19:54:57.544Z,98867.63
2022-12-13T19:57:24.419Z,98851.34
2022-12-13T19:59:51.403Z,98866.75
2022-12-13T20:02:18.375Z,98847.75
2022-12-13T20:04:45.400Z,98826.44
2022-12-13T20:07:12.419Z,98876.66
2022-12-13T20:09:40.063Z,98865.38
2022-12-13T20:12:07.033Z,98835.28
2022-12-13T20:14:34.100Z,98848.19
2022-12-13T20:17:01.120Z,98870.38
2022-12-13T20:19:28.115Z,98852.31
2022-12-13T20:21:57.032Z,98877.19
2022-12-13T20:24:24.285Z,98853.09
2022-12-13T20:26:51.208Z,98835.81
2022-12-13T20:29:18.762Z,98845.47
2022-12-13T20:31:48.670Z,98839.28
2022-12-13T20:34:16.268Z,98853.03
2022-12-13T20:36:43.256Z,98830.72
2022-12-13T20:39:11.601Z,98870.09
2022-12-13T20:41:38.512Z,98845.97
2022-12-13T20:44:07.046Z,98863.16
2022-12-13T20:46:36.705Z,98863.97
2022-12-13T20:49:04.609Z,98820.06
2022-12-13T20:51:32.306Z,98852.66
2022-12-13T20:53:59.343Z,98832.78
2022-12-13T20:56:28.138Z,98862.63
2022-12-13T20:58:55.240Z,98844.69
2022-12-13T21:01:32.601Z,98815.34
2022-12-13T21:04:00.606Z,98847.88
2022-12-13T21:06:28.319Z,98860.72
2022-12-13T21:08:56.756Z,98833.25
2022-12-13T21:11:25.824Z,98811.75
2022-12-13T21:14:25.647Z,98851.16
2022-12-13T21:16:54.300Z,98848.38
2022-12-13T21:19:30.961Z,98841.38
2022-12-13T21:22:01.556Z,98830.13
2022-12-13T21:24:29.706Z,98871.94
2022-12-13T21:26:56.738Z,98880.34
2022-12-13T21:29:23.762Z,98873.56
2022-12-13T21:31:50.834Z,98868.78
2022-12-13T21:34:18.310Z,98896.16
2022-12-13T21:36:46.779Z,98884.97
2022-12-13T21:39:15.661Z,98860.81
2022-12-13T21:41:42.785Z,98842.03
2022-12-13T21:44:14.177Z,98881.31
2022-12-13T21:47:10.812Z,98894.06
2022-12-13T21:49:29.141Z,98876.91
2022-12-13T21:51:56.089Z,98849.41
2022-12-13T21:54:23.043Z,98883.75
2022-12-13T21:57:08.318Z,98877.69
2022-12-13T21:59:35.392Z,98832.22
2022-12-13T22:02:13.668Z,98848.44
2022-12-13T22:04:41.364Z,98872.47
2022-12-13T22:07:08.644Z,98858.59
2022-12-13T22:09:36.169Z,98850.72
2022-12-13T22:12:07.000Z,98836.41
2022-12-13T22:14:34.025Z,98837.88
2022-12-13T22:17:01.639Z,98835.31
2022-12-13T22:19:28.654Z,98853.34
2022-12-13T22:21:55.606Z,98830.03
2022-12-13T22:24:22.582Z,98833.59
2022-12-13T22:26:49.450Z,98845.69
2022-12-13T22:29:16.724Z,98809.69
2022-12-13T22:31:43.791Z,98795.44
2022-12-13T22:34:15.960Z,98818.13
2022-12-13T22:36:42.898Z,98827.34
2022-12-13T22:39:16.386Z,98810.28
2022-12-13T22:41:43.523Z,98816.31
2022-12-13T22:44:11.493Z,98848.00
2022-12-13T22:46:38.491Z,98844.44
2022-12-13T22:49:05.702Z,98823.25
2022-12-13T22:51:32.646Z,98827.66
2022-12-13T22:53:59.517Z,98784.94
2022-12-13T22:56:26.650Z,98799.97
2022-12-13T22:58:54.564Z,98810.34
2022-12-13T23:01:23.445Z,98790.66
2022-12-13T23:03:50.641Z,98788.09
2022-12-13T23:06:22.087Z,98780.25
2022-12-13T23:08:57.173Z,98797.47
2022-12-13T23:11:42.575Z,98784.34
2022-12-13T23:14:12.244Z,98778.47
2022-12-13T23:16:39.231Z,98800.09
2022-12-13T23:19:39.898Z,98765.81
2022-12-13T23:21:55.256Z,98800.78
2022-12-13T23:24:22.333Z,98755.59
2022-12-13T23:26:49.422Z,98773.53
2022-12-13T23:29:16.330Z,98773.59
2022-12-13T23:31:49.102Z,98771.72
2022-12-13T23:34:16.372Z,98751.06
2022-12-13T23:36:43.280Z,98781.97
2022-12-13T23:39:10.828Z,98723.72
2022-12-13T23:41:37.792Z,98743.34
2022-12-13T23:44:05.088Z,98770.78
2022-12-13T23:46:33.746Z,98762.78
2022-12-13T23:49:01.298Z,98778.28
2022-12-13T23:51:28.555Z,98773.88
2022-12-13T23:53:55.518Z,98789.97
2022-12-13T23:56:22.649Z,98744.69
2022-12-13T23:58:49.798Z,98742.72
